Jonesville, Vermont
Current Conditions -  °F | °C
As of 3:54 AM on Friday 19 Dec 2014 (Local Time) from KBTV Reporting Station
Light Snow Light Snow  
Wind Chill: 19°   Ceiling: 1700
Heat Index: 28°   Visibility: 9mi
Dew Point: 21°   Wind: 9mph
Humidity: 75%   Direction: 340°NNW
Pressure: 29.96"   Gusts: NA
Location:  44.38°N, 72.94°W
Report Text: KBTV 190854Z 34008KT 9SM -SN BKN017 OVC026 M02/M06 A2996 RMK AO2 SLP149 P0000 60000 T10221061 53008
Loading
Personal Weather Stations






























Interactive Weather Map New forecast layout! Learn more

10-Day Weather Forecast

Advertisements
Track Severe Weather on mobile